Terminal Aerodrome Forecast
Issued by NWS Shreveport, LA

Home | Current Version | Previous Version | Text Only | Print | Product List | Glossary On
Versions: 1 2 3 4 5 6 7 8 9 10 11 12 13 14 15 16 17 18 19 20 21
000
FTUS44 KSHV 242300 RRA
TAFGGG
TAF
KGGG 242343Z 2500/2524 03003KT P6SM SCT030
     FM250300 12004KT P6SM SKC
     FM251100 13003KT 5SM BR SKC
     FM251300 18005KT P6SM SKC=

USA.gov is the U.S. government's official web portal to all federal, state and local government web resources and services.